Time;durP1;ratioP1;P1;durP2;ratioP2;P2;SDS_P1;SDS_P2;PMS_P1;PMS_P2;Temp;Humidity;BMP_temperature;BMP_pressure;BME280_temperature;BME280_humidity;BME280_pressure;Samples;Min_cycle;Max_cycle;Signal;HPM_P1;HPM_P2
2023/06/04 04:06:33;;;;;;;2.83;2.63;;;13.00;99.90;;;;;;5010142;28;20833;-62
2023/06/04 04:08:58;;;;;;;3.07;2.87;;;13.00;99.90;;;;;;5013120;28;20405;-61
2023/06/04 04:11:25;;;;;;;4.67;3.00;;;13.10;99.90;;;;;;5013434;28;20200;-62
2023/06/04 04:13:51;;;;;;;2.50;2.30;;;13.10;99.90;;;;;;5012692;28;20644;-62
2023/06/04 04:16:16;;;;;;;3.20;2.87;;;13.20;99.90;;;;;;4997101;28;20461;-61
2023/06/04 04:18:43;;;;;;;2.77;2.00;;;13.30;99.90;;;;;;4997136;28;20185;-61
2023/06/04 04:21:10;;;;;;;3.90;3.33;;;13.40;99.90;;;;;;4995718;28;20175;-62
2023/06/04 04:23:38;;;;;;;2.60;2.40;;;13.40;99.90;;;;;;4997139;28;20769;-62
2023/06/04 04:26:03;;;;;;;8.37;3.93;;;13.50;99.90;;;;;;4996884;28;20421;-62
2023/06/04 04:28:29;;;;;;;2.87;2.73;;;13.70;99.90;;;;;;4995615;28;20957;-62
2023/06/04 04:31:02;;;;;;;4.23;3.93;;;13.90;99.90;;;;;;4996943;28;20193;-62
2023/06/04 04:33:32;;;;;;;2.40;2.20;;;14.10;99.90;;;;;;4996450;28;20772;-61
2023/06/04 04:35:59;;;;;;;3.23;2.93;;;14.30;99.90;;;;;;4996094;28;20494;-62
2023/06/04 04:38:25;;;;;;;4.33;3.60;;;14.50;99.90;;;;;;4996834;28;20421;-62
2023/06/04 04:40:52;;;;;;;3.10;2.50;;;14.80;99.90;;;;;;4996868;28;20399;-62
2023/06/04 04:43:34;;;;;;;2.57;2.37;;;14.90;99.90;;;;;;4996322;28;20187;-62
2023/06/04 04:46:00;;;;;;;3.50;3.20;;;15.10;99.90;;;;;;4996221;28;20418;-62
2023/06/04 04:48:26;;;;;;;5.40;3.40;;;15.20;99.90;;;;;;4996570;28;20434;-63
2023/06/04 04:50:52;;;;;;;2.97;2.77;;;15.20;99.90;;;;;;4996605;28;20908;-62
2023/06/04 04:53:17;;;;;;;2.63;2.40;;;15.20;99.90;;;;;;4996138;28;20414;-63
2023/06/04 04:55:43;;;;;;;2.40;2.20;;;15.20;99.90;;;;;;4996339;28;20504;-62
2023/06/04 04:58:09;;;;;;;2.67;1.90;;;15.20;99.90;;;;;;4996472;28;20172;-62
2023/06/04 05:00:34;;;;;;;3.60;3.30;;;15.40;99.90;;;;;;4996412;28;20480;-63
2023/06/04 05:03:00;;;;;;;3.40;2.87;;;15.50;99.90;;;;;;4996154;28;20166;-63
2023/06/04 05:05:25;;;;;;;3.47;3.23;;;15.60;99.90;;;;;;4996268;28;20217;-62
2023/06/04 05:07:51;;;;;;;3.03;2.67;;;15.70;99.90;;;;;;4996171;28;20176;-62
2023/06/04 05:10:17;;;;;;;3.33;2.80;;;15.80;99.30;;;;;;4996254;28;20190;-62
2023/06/04 05:12:59;;;;;;;2.67;2.47;;;15.80;99.00;;;;;;4996083;28;20690;-62
2023/06/04 05:15:26;;;;;;;2.23;2.03;;;15.80;99.20;;;;;;4995736;28;20469;-62
2023/06/04 05:17:52;;;;;;;1.77;1.67;;;15.80;97.30;;;;;;4996040;28;20417;-62
2023/06/04 05:20:18;;;;;;;2.60;1.97;;;15.80;96.80;;;;;;4996019;28;20752;-62
2023/06/04 05:22:45;;;;;;;2.10;2.00;;;15.90;95.50;;;;;;4996077;28;20419;-63
2023/06/04 05:25:11;;;;;;;1.37;1.27;;;16.00;94.30;;;;;;4995133;28;20436;-62
2023/06/04 05:27:38;;;;;;;2.10;1.90;;;16.00;93.10;;;;;;4995810;28;20461;-63
2023/06/04 05:30:04;;;;;;;1.80;1.60;;;16.00;92.40;;;;;;4995786;28;20422;-63
2023/06/04 05:32:31;;;;;;;1.10;1.10;;;16.00;91.60;;;;;;4995650;28;20416;-63
2023/06/04 05:34:58;;;;;;;1.90;1.80;;;16.10;91.50;;;;;;4995063;28;20964;-63
2023/06/04 05:37:28;;;;;;;1.60;1.50;;;16.20;91.20;;;;;;4995719;28;20413;-62
2023/06/04 05:39:57;;;;;;;1.77;1.67;;;16.40;91.40;;;;;;4995647;28;20410;-63
2023/06/04 05:42:23;;;;;;;1.70;1.60;;;16.60;90.50;;;;;;4995610;28;20523;-63
2023/06/04 05:44:49;;;;;;;1.70;1.40;;;17.00;88.30;;;;;;4995239;28;20445;-62
2023/06/04 05:47:16;;;;;;;1.60;1.50;;;17.20;86.40;;;;;;4995551;28;20445;-63
2023/06/04 05:49:42;;;;;;;1.33;1.23;;;17.20;85.90;;;;;;4995497;28;20410;-62
2023/06/04 05:52:08;;;;;;;1.40;1.30;;;17.40;85.00;;;;;;4995405;28;20773;-63
2023/06/04 05:54:33;;;;;;;1.27;1.17;;;17.50;86.40;;;;;;4994805;28;20669;-63
2023/06/04 05:56:59;;;;;;;1.33;1.23;;;17.70;85.40;;;;;;4995007;28;20206;-63
2023/06/04 05:59:24;;;;;;;1.33;1.23;;;17.90;83.90;;;;;;4995395;28;20178;-62
2023/06/04 06:01:50;;;;;;;1.30;1.20;;;17.90;84.10;;;;;;4995099;28;20207;-63
2023/06/04 06:04:16;;;;;;;1.10;1.00;;;17.90;82.30;;;;;;4994623;28;20203;-62
2023/06/04 06:06:43;;;;;;;1.43;1.33;;;18.00;81.10;;;;;;4995028;28;20245;-62
2023/06/04 06:09:10;;;;;;;1.50;1.40;;;18.10;80.50;;;;;;4995019;28;20454;-63
2023/06/04 06:11:36;;;;;;;1.10;1.10;;;18.00;80.10;;;;;;4994874;28;20413;-63
2023/06/04 06:14:01;;;;;;;1.67;1.27;;;18.10;81.00;;;;;;4994648;28;20421;-63
2023/06/04 06:16:27;;;;;;;1.90;1.53;;;18.10;81.60;;;;;;4994747;28;20466;-63
2023/06/04 06:18:53;;;;;;;1.00;1.00;;;18.10;82.00;;;;;;4994950;28;20172;-63
2023/06/04 06:21:19;;;;;;;2.10;1.13;;;18.10;81.80;;;;;;4994657;28;20261;-62
2023/06/04 06:23:45;;;;;;;2.03;1.53;;;18.20;81.60;;;;;;4994461;28;20500;-63
2023/06/04 06:26:11;;;;;;;5.20;1.40;;;18.20;79.90;;;;;;4994785;28;20203;-63
2023/06/04 06:28:37;;;;;;;1.83;1.23;;;18.40;79.00;;;;;;4994765;28;20469;-63
2023/06/04 06:31:03;;;;;;;1.00;1.00;;;18.40;79.30;;;;;;4994594;28;20411;-63
2023/06/04 06:33:28;;;;;;;1.30;1.30;;;18.50;79.40;;;;;;4994384;28;20183;-63
2023/06/04 06:35:54;;;;;;;2.07;1.87;;;18.60;80.10;;;;;;4994355;28;20234;-64
2023/06/04 06:38:20;;;;;;;1.13;1.10;;;18.50;79.60;;;;;;4993869;28;20176;-63
2023/06/04 06:40:45;;;;;;;2.20;1.57;;;18.60;79.50;;;;;;4994586;28;20168;-66
2023/06/04 06:43:11;;;;;;;1.80;1.47;;;18.70;79.80;;;;;;4994303;28;20507;-63
2023/06/04 06:45:37;;;;;;;1.53;1.10;;;18.80;79.50;;;;;;4994154;28;20657;-63
2023/06/04 06:48:03;;;;;;;1.50;1.40;;;18.80;78.90;;;;;;4994362;28;20188;-63
2023/06/04 06:50:29;;;;;;;2.70;1.10;;;18.90;79.50;;;;;;4994310;28;20896;-63
2023/06/04 06:52:55;;;;;;;1.50;1.40;;;19.10;81.20;;;;;;4994217;28;20409;-63
2023/06/04 06:55:21;;;;;;;0.97;0.97;;;19.20;80.00;;;;;;4993430;28;20306;-62
2023/06/04 06:57:47;;;;;;;1.50;1.40;;;19.40;79.20;;;;;;4994329;28;20231;-64
2023/06/04 07:00:13;;;;;;;1.70;1.60;;;19.40;79.70;;;;;;4994217;28;20434;-64
2023/06/04 07:02:39;;;;;;;1.03;1.03;;;19.50;79.70;;;;;;4994213;28;20223;-64
2023/06/04 07:05:05;;;;;;;1.30;1.20;;;19.60;79.20;;;;;;4993712;28;20482;-63
2023/06/04 07:07:31;;;;;;;1.23;1.23;;;19.70;77.60;;;;;;4994078;28;20263;-63
2023/06/04 07:09:56;;;;;;;1.53;1.43;;;19.80;77.80;;;;;;4994225;28;20228;-63
2023/06/04 07:12:22;;;;;;;1.33;1.33;;;19.80;77.40;;;;;;4994095;28;20415;-63
2023/06/04 07:14:47;;;;;;;1.43;1.10;;;19.90;77.40;;;;;;4993511;28;20199;-63
2023/06/04 07:17:13;;;;;;;1.60;1.50;;;20.00;77.30;;;;;;4993879;28;20171;-63
2023/06/04 07:19:38;;;;;;;1.40;1.30;;;20.10;78.00;;;;;;4993339;28;20188;-64
2023/06/04 07:22:04;;;;;;;1.00;1.00;;;20.20;77.30;;;;;;4993729;28;20322;-64
2023/06/04 07:24:30;;;;;;;2.23;2.03;;;20.50;77.40;;;;;;4993777;28;20285;-64
2023/06/04 07:26:56;;;;;;;0.93;0.93;;;20.90;75.80;;;;;;4993573;28;20461;-62
2023/06/04 07:29:22;;;;;;;1.57;1.30;;;21.50;75.10;;;;;;4993812;28;20178;-64
2023/06/04 07:31:47;;;;;;;1.57;1.47;;;22.10;73.10;;;;;;4993535;28;20429;-64
2023/06/04 07:34:13;;;;;;;1.60;1.50;;;22.70;73.10;;;;;;4993310;28;20206;-63
2023/06/04 07:36:39;;;;;;;1.17;1.10;;;23.50;71.70;;;;;;4993666;28;20201;-65
2023/06/04 07:39:04;;;;;;;2.03;1.60;;;24.40;69.90;;;;;;4992622;28;20191;-62
2023/06/04 07:41:30;;;;;;;1.77;1.67;;;25.40;65.40;;;;;;4993609;28;20202;-62
2023/06/04 07:43:56;;;;;;;1.53;1.43;;;26.40;63.00;;;;;;4993264;28;20180;-62
2023/06/04 07:46:21;;;;;;;1.40;1.30;;;27.30;62.10;;;;;;4993484;28;20179;-63
2023/06/04 07:48:47;;;;;;;1.70;1.60;;;28.20;59.30;;;;;;4995346;28;20238;-63
2023/06/04 07:51:13;;;;;;;1.93;1.53;;;29.00;58.30;;;;;;4997323;28;20183;-63
2023/06/04 07:53:39;;;;;;;2.17;2.00;;;29.90;56.60;;;;;;4997246;28;20184;-64
2023/06/04 07:56:05;;;;;;;1.60;1.50;;;30.50;55.60;;;;;;4997326;28;20495;-62
2023/06/04 07:58:31;;;;;;;1.97;1.83;;;30.90;54.20;;;;;;4997256;28;20421;-63
2023/06/04 08:00:57;;;;;;;1.77;1.67;;;30.80;53.30;;;;;;4997424;28;20389;-62
2023/06/04 08:03:22;;;;;;;1.93;1.83;;;30.90;52.40;;;;;;4996934;28;20657;-62
2023/06/04 08:05:48;;;;;;;2.13;1.93;;;30.90;52.60;;;;;;4996722;28;20672;-63
2023/06/04 08:08:14;;;;;;;1.87;1.77;;;31.10;53.00;;;;;;4997315;28;20385;-62
2023/06/04 08:10:40;;;;;;;2.30;1.60;;;31.20;53.40;;;;;;4997089;28;20195;-63
2023/06/04 08:13:06;;;;;;;1.43;1.33;;;31.30;52.40;;;;;;4995567;28;20187;-63
2023/06/04 08:15:31;;;;;;;1.80;1.70;;;31.90;52.40;;;;;;4996867;28;20458;-64
2023/06/04 08:17:57;;;;;;;1.70;1.60;;;32.00;51.50;;;;;;4996869;28;20176;-62
2023/06/04 08:20:23;;;;;;;1.70;1.60;;;32.50;51.50;;;;;;4996921;28;20167;-63
2023/06/04 08:22:49;;;;;;;2.10;1.90;;;33.00;51.20;;;;;;4996733;28;20175;-63
2023/06/04 08:25:15;;;;;;;1.80;1.70;;;33.30;50.30;;;;;;4996384;28;20430;-64
2023/06/04 08:27:42;;;;;;;1.70;1.60;;;33.20;50.30;;;;;;4996748;28;20630;-64
2023/06/04 08:30:08;;;;;;;2.60;1.70;;;33.40;50.00;;;;;;4996860;28;20846;-63
2023/06/04 08:32:34;;;;;;;1.93;1.83;;;33.40;50.80;;;;;;4996372;28;20415;-64
2023/06/04 08:35:00;;;;;;;1.87;1.77;;;33.80;50.10;;;;;;4996151;28;20438;-63
2023/06/04 08:37:25;;;;;;;2.20;2.10;;;33.90;49.70;;;;;;4996584;28;20179;-63
2023/06/04 08:39:52;;;;;;;1.80;1.70;;;34.40;49.30;;;;;;4997163;28;20640;-64
2023/06/04 08:42:44;;;;;;;1.87;1.77;;;34.90;48.40;;;;;;4996661;28;20183;-65
2023/06/04 08:45:16;;;;;;;1.80;1.70;;;35.20;47.10;;;;;;4995123;28;20557;-64
2023/06/04 08:47:47;;;;;;;1.80;1.70;;;35.40;47.10;;;;;;4996631;28;20418;-65
2023/06/04 08:50:17;;;;;;;1.90;1.80;;;35.40;46.40;;;;;;4996637;28;20429;-64
2023/06/04 08:52:43;;;;;;;2.23;2.07;;;35.40;46.10;;;;;;4996637;28;20557;-64
2023/06/04 08:55:11;;;;;;;2.17;2.07;;;35.30;46.00;;;;;;4995960;28;20512;-64
2023/06/04 08:57:37;;;;;;;2.10;2.00;;;35.30;45.90;;;;;;4996473;28;20183;-64
2023/06/04 09:00:05;;;;;;;1.70;1.60;;;35.10;46.80;;;;;;4995602;28;20414;-63
2023/06/04 09:02:31;;;;;;;2.00;1.90;;;35.00;46.40;;;;;;4996335;28;20419;-63
2023/06/04 09:04:56;;;;;;;2.20;2.10;;;35.00;45.70;;;;;;4995759;28;20434;-64
2023/06/04 09:07:23;;;;;;;2.00;1.90;;;34.80;45.50;;;;;;4996255;28;20959;-64
2023/06/04 09:09:49;;;;;;;1.93;1.83;;;35.10;45.90;;;;;;4996218;28;20179;-63
2023/06/04 09:12:24;;;;;;;2.03;1.93;;;35.10;44.60;;;;;;4996127;28;20810;-64
2023/06/04 09:14:52;;;;;;;1.70;1.60;;;34.60;45.10;;;;;;4995726;28;20423;-63
2023/06/04 09:17:22;;;;;;;1.60;1.50;;;33.90;45.70;;;;;;4995814;28;20470;-63
2023/06/04 09:19:48;;;;;;;2.17;1.97;;;34.00;45.70;;;;;;4995932;28;20787;-64
2023/06/04 09:22:13;;;;;;;1.87;1.77;;;34.20;45.10;;;;;;4995897;28;20431;-64
2023/06/04 09:24:47;;;;;;;1.70;1.60;;;34.40;45.60;;;;;;4995202;28;20222;-64
2023/06/04 09:27:15;;;;;;;1.97;1.87;;;34.40;45.70;;;;;;4994262;28;20211;-64
2023/06/04 09:29:52;;;;;;;1.80;1.70;;;33.70;44.90;;;;;;4995785;28;20465;-63
2023/06/04 09:32:28;;;;;;;2.00;1.90;;;33.60;45.70;;;;;;4995708;28;20401;-62
2023/06/04 09:34:56;;;;;;;1.70;1.60;;;34.00;45.50;;;;;;4995265;28;20495;-64
2023/06/04 09:37:22;;;;;;;1.80;1.70;;;34.30;45.00;;;;;;4995584;28;20400;-63
2023/06/04 09:39:57;;;;;;;2.13;2.03;;;34.30;44.90;;;;;;4995563;28;20561;-63
2023/06/04 09:42:23;;;;;;;1.97;1.87;;;34.40;45.00;;;;;;4995447;28;20418;-65
2023/06/04 09:44:49;;;;;;;1.50;1.50;;;34.60;44.70;;;;;;4995195;28;20514;-64
2023/06/04 09:47:15;;;;;;;2.10;2.00;;;35.00;44.00;;;;;;4995455;28;20462;-64
2023/06/04 09:49:42;;;;;;;1.77;1.67;;;35.20;43.00;;;;;;4995313;28;20262;-64
2023/06/04 09:52:08;;;;;;;2.10;2.00;;;35.00;43.20;;;;;;4995209;28;20401;-64
2023/06/04 09:54:37;;;;;;;1.90;1.80;;;35.30;43.10;;;;;;4994807;28;21060;-63
2023/06/04 09:57:17;;;;;;;2.43;2.33;;;35.80;43.60;;;;;;4995252;28;20485;-62
2023/06/04 09:59:50;;;;;;;1.73;1.63;;;36.30;42.80;;;;;;4995316;28;20433;-65
2023/06/04 10:02:20;;;;;;;1.83;1.73;;;36.50;42.50;;;;;;4993979;28;20384;-65
2023/06/04 10:04:58;;;;;;;2.40;2.30;;;36.20;42.10;;;;;;4993274;28;20462;-65
2023/06/04 10:07:26;;;;;;;1.77;1.67;;;36.00;42.30;;;;;;4995248;28;20466;-64
2023/06/04 10:09:55;;;;;;;2.10;2.00;;;36.10;42.60;;;;;;4995066;28;20433;-63
2023/06/04 10:12:26;;;;;;;2.37;2.23;;;35.90;42.10;;;;;;4994083;28;20412;-64
2023/06/04 10:14:56;;;;;;;2.20;2.10;;;35.70;42.20;;;;;;4994305;28;20920;-64
2023/06/04 10:17:24;;;;;;;1.80;1.70;;;35.80;42.90;;;;;;4993500;28;20386;-64
2023/06/04 10:19:53;;;;;;;2.10;2.00;;;35.80;44.00;;;;;;4994611;28;20971;-64
2023/06/04 10:22:20;;;;;;;1.80;1.70;;;35.70;42.40;;;;;;4994651;28;20411;-63
2023/06/04 10:24:46;;;;;;;2.17;2.00;;;35.70;42.40;;;;;;4994336;28;20454;-64
2023/06/04 10:27:12;;;;;;;1.93;1.83;;;35.50;42.30;;;;;;4994576;28;20922;-63
2023/06/04 10:29:39;;;;;;;3.70;2.07;;;35.60;42.80;;;;;;4994597;28;20396;-65
2023/06/04 10:32:05;;;;;;;2.87;2.67;;;35.70;42.00;;;;;;4994645;28;20446;-64
2023/06/04 10:34:31;;;;;;;2.00;1.90;;;36.00;41.80;;;;;;4992672;28;20505;-63
2023/06/04 10:36:57;;;;;;;2.00;1.90;;;35.80;41.70;;;;;;4994347;28;20451;-64
2023/06/04 10:39:32;;;;;;;1.90;1.80;;;35.20;42.00;;;;;;4994559;28;20914;-63
2023/06/04 10:42:08;;;;;;;1.90;1.80;;;34.60;42.60;;;;;;4993038;28;20175;-61
2023/06/04 10:44:49;;;;;;;2.23;2.03;;;34.50;42.30;;;;;;4994266;28;20467;-64
2023/06/04 10:47:23;;;;;;;2.70;2.50;;;33.90;43.00;;;;;;4993966;28;20457;-63
2023/06/04 10:49:53;;;;;;;2.23;2.03;;;33.30;43.50;;;;;;4993838;28;20406;-63
2023/06/04 10:52:19;;;;;;;2.63;2.43;;;33.10;43.50;;;;;;4993877;28;20382;-64
2023/06/04 10:54:48;;;;;;;2.20;2.10;;;32.70;43.90;;;;;;4993329;28;20426;-64
2023/06/04 10:57:18;;;;;;;2.10;2.00;;;32.60;45.30;;;;;;4993949;28;20422;-64
2023/06/04 11:00:03;;;;;;;2.13;2.03;;;32.80;43.90;;;;;;4993892;28;20717;-63
2023/06/04 11:02:28;;;;;;;2.10;1.90;;;32.60;43.70;;;;;;4993935;28;20881;-64
2023/06/04 11:05:05;;;;;;;1.97;1.83;;;32.40;44.40;;;;;;4993107;28;20484;-63
2023/06/04 11:07:43;;;;;;;2.63;2.43;;;32.30;43.60;;;;;;4993882;28;20183;-64
2023/06/04 11:10:13;;;;;;;1.83;1.73;;;31.90;44.30;;;;;;4993780;28;20388;-63
2023/06/04 11:12:46;;;;;;;2.50;2.00;;;31.50;44.80;;;;;;4993602;28;20397;-62
2023/06/04 11:15:12;;;;;;;2.10;2.00;;;30.70;45.20;;;;;;4993058;28;20469;-63
2023/06/04 11:17:48;;;;;;;2.07;1.87;;;29.70;45.60;;;;;;4993660;28;20385;-63
2023/06/04 11:20:19;;;;;;;2.40;2.30;;;28.90;46.30;;;;;;4994289;28;20388;-64
2023/06/04 11:22:57;;;;;;;1.77;1.67;;;28.00;48.20;;;;;;4992792;28;20418;-63
2023/06/04 11:25:24;;;;;;;1.80;1.70;;;27.50;48.30;;;;;;4997591;28;20524;-64
2023/06/04 11:27:53;;;;;;;1.67;1.50;;;27.00;49.80;;;;;;4997719;28;20414;-64
2023/06/04 11:30:18;;;;;;;2.10;1.90;;;26.70;49.30;;;;;;4996392;28;20489;-64
2023/06/04 11:32:44;;;;;;;1.93;1.67;;;26.50;50.10;;;;;;4997593;28;20454;-64
2023/06/04 11:35:11;;;;;;;2.20;2.07;;;26.40;49.80;;;;;;4996987;28;20640;-63
2023/06/04 11:37:37;;;;;;;1.83;1.73;;;26.30;49.80;;;;;;4997477;28;20208;-64
2023/06/04 11:40:14;;;;;;;1.87;1.73;;;26.10;50.30;;;;;;4997322;28;20476;-64
2023/06/04 11:42:43;;;;;;;2.17;1.93;;;25.90;50.10;;;;;;4997454;28;20418;-64
2023/06/04 11:45:12;;;;;;;1.93;1.83;;;25.70;51.50;;;;;;4996512;28;20536;-63
2023/06/04 11:47:37;;;;;;;2.00;1.90;;;25.50;50.90;;;;;;4997311;28;20805;-64
2023/06/04 11:50:04;;;;;;;2.10;1.90;;;25.50;50.80;;;;;;4997093;28;20474;-63
2023/06/04 11:52:29;;;;;;;2.03;1.83;;;25.40;51.50;;;;;;4995608;28;20195;-63
2023/06/04 11:54:55;;;;;;;1.57;1.47;;;25.30;51.50;;;;;;4996161;28;20438;-64
2023/06/04 11:57:21;;;;;;;2.20;2.10;;;25.40;51.50;;;;;;4997295;28;20203;-63
2023/06/04 11:59:47;;;;;;;1.80;1.70;;;25.40;51.30;;;;;;4996821;28;20677;-63
2023/06/04 12:02:13;;;;;;;2.43;2.23;;;25.40;52.10;;;;;;4996865;28;20485;-63
2023/06/04 12:04:38;;;;;;;3.17;2.90;;;25.40;51.90;;;;;;4996408;28;20219;-63
2023/06/04 12:07:06;;;;;;;2.30;2.20;;;25.40;51.50;;;;;;4996422;28;20254;-64
2023/06/04 12:09:35;;;;;;;1.97;1.87;;;25.40;51.90;;;;;;4996947;28;20534;-63
2023/06/04 12:12:02;;;;;;;1.80;1.70;;;25.40;51.80;;;;;;4996672;28;20463;-63
2023/06/04 12:14:28;;;;;;;2.17;2.07;;;25.50;51.80;;;;;;4994013;28;20858;-63
2023/06/04 12:17:01;;;;;;;2.47;2.27;;;25.50;52.60;;;;;;4995905;28;20498;-64
2023/06/04 12:19:28;;;;;;;2.10;2.00;;;25.60;52.10;;;;;;4995567;28;20430;-64
2023/06/04 12:22:05;;;;;;;3.87;3.23;;;25.60;52.30;;;;;;4996515;28;20422;-64
2023/06/04 12:24:34;;;;;;;1.83;1.70;;;25.70;51.50;;;;;;4996123;28;20438;-63
2023/06/04 12:27:11;;;;;;;5.17;1.60;;;25.40;51.60;;;;;;4996645;28;20484;-63
2023/06/04 12:29:36;;;;;;;1.80;1.80;;;25.30;52.30;;;;;;4995023;28;20417;-64
2023/06/04 12:32:11;;;;;;;2.30;2.10;;;25.20;51.80;;;;;;4996229;28;20754;-64
2023/06/04 12:34:37;;;;;;;1.90;1.80;;;25.20;52.40;;;;;;4994955;28;20199;-63
2023/06/04 12:37:05;;;;;;;1.87;1.77;;;25.30;54.50;;;;;;4996133;28;20458;-64
2023/06/04 12:39:31;;;;;;;1.77;1.67;;;25.50;51.80;;;;;;4995997;28;20438;-64
2023/06/04 12:41:57;;;;;;;1.80;1.70;;;25.50;52.00;;;;;;4996196;28;20436;-64
2023/06/04 12:44:23;;;;;;;1.70;1.47;;;25.50;50.80;;;;;;4995742;28;20431;-65
2023/06/04 12:46:48;;;;;;;2.03;1.90;;;25.50;50.80;;;;;;4996380;28;20184;-64
2023/06/04 12:49:14;;;;;;;2.47;2.27;;;25.40;51.40;;;;;;4995897;28;20190;-63
2023/06/04 12:51:39;;;;;;;1.80;1.70;;;25.50;51.50;;;;;;4995031;28;20656;-62
2023/06/04 12:54:05;;;;;;;2.10;2.00;;;25.40;51.20;;;;;;4995318;28;20188;-63
2023/06/04 12:56:31;;;;;;;11.07;1.97;;;25.40;50.90;;;;;;4995759;28;20211;-63
2023/06/04 12:58:56;;;;;;;1.80;1.70;;;25.40;51.10;;;;;;4995880;28;20210;-61
2023/06/04 13:01:22;;;;;;;1.90;1.80;;;25.40;50.80;;;;;;4995964;28;20680;-64
2023/06/04 13:03:48;;;;;;;1.40;1.40;;;25.40;50.40;;;;;;4995338;28;20626;-64
2023/06/04 13:06:13;;;;;;;2.10;1.93;;;25.40;49.90;;;;;;4995565;28;20219;-64
2023/06/04 13:08:40;;;;;;;1.70;1.60;;;25.40;49.40;;;;;;4995603;28;20655;-64
2023/06/04 13:11:06;;;;;;;2.13;2.03;;;25.40;50.50;;;;;;4995702;28;20314;-63
2023/06/04 13:13:31;;;;;;;2.13;1.97;;;25.40;49.80;;;;;;4995266;28;20423;-62
2023/06/04 13:15:57;;;;;;;2.27;2.07;;;25.40;50.20;;;;;;4995505;28;20473;-65
2023/06/04 13:18:23;;;;;;;1.70;1.60;;;25.40;50.60;;;;;;4995536;28;20184;-63
2023/06/04 13:20:49;;;;;;;2.50;2.30;;;25.40;51.20;;;;;;4995362;28;20569;-62
2023/06/04 13:23:14;;;;;;;3.67;2.10;;;25.50;50.60;;;;;;4994847;28;20275;-64
2023/06/04 13:25:40;;;;;;;1.93;1.67;;;25.60;50.50;;;;;;4995532;28;20286;-64
2023/06/04 13:28:07;;;;;;;2.00;1.80;;;25.60;50.30;;;;;;4995427;28;20419;-63
2023/06/04 13:30:39;;;;;;;2.30;2.07;;;25.60;50.30;;;;;;4995121;28;20530;-63
2023/06/04 13:33:05;;;;;;;1.63;1.53;;;25.50;50.50;;;;;;4995043;28;20446;-62
2023/06/04 13:35:31;;;;;;;3.00;2.07;;;25.40;51.10;;;;;;4995134;28;20505;-63
2023/06/04 13:37:57;;;;;;;2.30;1.67;;;25.40;51.00;;;;;;4994914;28;20206;-62
2023/06/04 13:40:23;;;;;;;1.90;1.60;;;25.40;51.40;;;;;;4995096;28;20905;-63
2023/06/04 13:42:48;;;;;;;1.87;1.77;;;25.50;50.70;;;;;;4994531;28;20187;-63
2023/06/04 13:45:14;;;;;;;1.67;1.37;;;25.50;51.20;;;;;;4993052;28;20203;-64
2023/06/04 13:47:39;;;;;;;1.40;1.30;;;25.60;49.80;;;;;;4994427;28;20630;-63
2023/06/04 13:50:05;;;;;;;1.97;1.77;;;25.60;49.80;;;;;;4995112;28;20180;-63
2023/06/04 13:52:31;;;;;;;1.60;1.50;;;25.50;49.40;;;;;;4995087;28;20187;-63
2023/06/04 13:55:00;;;;;;;1.60;1.50;;;25.50;49.00;;;;;;4994243;28;20405;-63
2023/06/04 13:57:27;;;;;;;1.60;1.50;;;25.40;48.60;;;;;;4994760;28;20176;-63
2023/06/04 13:59:53;;;;;;;1.73;1.63;;;25.40;48.80;;;;;;4994719;28;20761;-63
2023/06/04 14:02:19;;;;;;;1.63;1.30;;;25.30;49.20;;;;;;4994737;28;20421;-64
2023/06/04 14:04:45;;;;;;;1.90;1.70;;;25.30;49.20;;;;;;4994304;28;20278;-64
2023/06/04 14:07:10;;;;;;;1.60;1.50;;;25.30;49.30;;;;;;4994601;28;20206;-62
2023/06/04 14:09:36;;;;;;;1.60;1.50;;;25.30;48.90;;;;;;4994621;28;20626;-64
2023/06/04 14:12:03;;;;;;;1.73;1.63;;;25.30;48.60;;;;;;4994737;28;20310;-64
2023/06/04 14:14:36;;;;;;;1.30;1.20;;;25.30;48.00;;;;;;4993882;28;20203;-64
2023/06/04 14:17:05;;;;;;;1.87;1.63;;;25.20;48.20;;;;;;4994211;28;20469;-63
2023/06/04 14:19:32;;;;;;;1.73;1.57;;;25.10;48.40;;;;;;4994827;28;20423;-63
2023/06/04 14:21:58;;;;;;;2.07;1.97;;;25.10;49.30;;;;;;4994788;28;20410;-64
2023/06/04 14:24:23;;;;;;;2.10;1.60;;;25.10;48.70;;;;;;4992731;28;20805;-63
2023/06/04 14:26:49;;;;;;;1.80;1.63;;;25.10;48.20;;;;;;4994581;28;20253;-64
2023/06/04 14:29:15;;;;;;;2.20;1.60;;;25.00;49.10;;;;;;4994368;28;20218;-64
2023/06/04 14:31:41;;;;;;;1.60;1.47;;;25.00;49.40;;;;;;4993834;28;20197;-63
2023/06/04 14:34:08;;;;;;;2.00;1.90;;;25.10;48.90;;;;;;4994012;28;20266;-63
2023/06/04 14:36:33;;;;;;;1.60;1.50;;;25.10;49.00;;;;;;4992890;28;20658;-63
2023/06/04 14:38:59;;;;;;;1.67;1.57;;;25.20;49.60;;;;;;4994223;28;20429;-63
2023/06/04 14:41:26;;;;;;;1.90;1.80;;;25.30;49.40;;;;;;4994022;28;20194;-64
2023/06/04 14:43:52;;;;;;;2.10;1.90;;;25.30;48.20;;;;;;4993462;28;20419;-64
2023/06/04 14:46:18;;;;;;;1.77;1.67;;;25.30;48.60;;;;;;4993914;28;20493;-63
2023/06/04 14:48:43;;;;;;;2.40;2.20;;;25.40;48.50;;;;;;4994129;28;20184;-62
2023/06/04 14:51:09;;;;;;;1.80;1.70;;;25.40;48.00;;;;;;4993941;28;20180;-63
2023/06/04 14:53:38;;;;;;;2.77;1.93;;;25.40;47.50;;;;;;4993585;28;20550;-62
2023/06/04 14:56:05;;;;;;;1.50;1.40;;;25.30;47.80;;;;;;4993861;28;20454;-62
2023/06/04 14:58:30;;;;;;;2.63;1.67;;;25.20;47.90;;;;;;4993418;28;20887;-64
2023/06/04 15:00:59;;;;;;;2.30;2.10;;;25.10;48.90;;;;;;4992224;28;20497;-63
2023/06/04 15:03:25;;;;;;;1.47;1.37;;;25.10;48.50;;;;;;4993592;28;20697;-61
2023/06/04 15:05:51;;;;;;;1.70;1.60;;;25.00;48.20;;;;;;4993353;28;20938;-64
2023/06/04 15:08:17;;;;;;;1.77;1.63;;;25.00;48.70;;;;;;4993779;28;20896;-63
2023/06/04 15:10:43;;;;;;;1.87;1.50;;;24.90;48.60;;;;;;4993627;28;20418;-64
2023/06/04 15:13:08;;;;;;;1.53;1.43;;;24.90;48.60;;;;;;4993363;28;20652;-61
2023/06/04 15:15:34;;;;;;;1.67;1.53;;;24.90;48.40;;;;;;4992233;28;20695;-62
2023/06/04 15:18:00;;;;;;;1.57;1.43;;;24.80;48.10;;;;;;4993835;28;20176;-63
2023/06/04 15:20:27;;;;;;;1.50;1.40;;;24.80;48.40;;;;;;4993861;28;20199;-64
2023/06/04 15:22:53;;;;;;;1.33;1.33;;;24.80;48.70;;;;;;4993827;28;20262;-64
2023/06/04 15:25:19;;;;;;;1.40;1.40;;;24.80;48.60;;;;;;4993058;28;20431;-63
2023/06/04 15:27:44;;;;;;;1.67;1.57;;;24.80;49.00;;;;;;4993676;28;20471;-64
2023/06/04 15:30:10;;;;;;;1.30;1.20;;;24.90;49.30;;;;;;4993394;28;20812;-63
2023/06/04 15:32:36;;;;;;;1.40;1.30;;;24.80;48.60;;;;;;4992164;28;20278;-62
2023/06/04 15:35:03;;;;;;;1.77;1.67;;;24.90;48.30;;;;;;4992719;28;20208;-63
2023/06/04 15:37:29;;;;;;;1.57;1.33;;;24.90;48.60;;;;;;4993638;28;20411;-63
2023/06/04 15:39:57;;;;;;;1.80;1.53;;;24.90;49.30;;;;;;4993501;28;20403;-63
2023/06/04 15:42:23;;;;;;;1.47;1.37;;;24.90;49.30;;;;;;4993545;28;20175;-62
2023/06/04 15:44:48;;;;;;;1.63;1.53;;;24.90;49.50;;;;;;4992770;28;20965;-64
2023/06/04 15:47:14;;;;;;;2.03;1.30;;;24.80;48.80;;;;;;4993949;28;20234;-62
2023/06/04 15:49:40;;;;;;;1.73;1.63;;;24.90;49.10;;;;;;4993893;28;20230;-63
2023/06/04 15:52:06;;;;;;;1.80;1.70;;;24.80;49.00;;;;;;4993639;28;20187;-64
2023/06/04 15:54:32;;;;;;;1.80;1.70;;;24.90;49.20;;;;;;4993180;28;20501;-63
2023/06/04 15:56:58;;;;;;;1.67;1.20;;;24.80;49.20;;;;;;4993447;28;21035;-63
2023/06/04 15:59:23;;;;;;;1.40;1.30;;;24.80;49.00;;;;;;4993472;28;20620;-63
2023/06/04 16:01:50;;;;;;;2.03;1.60;;;24.80;49.10;;;;;;4993781;28;20258;-63
2023/06/04 16:04:16;;;;;;;1.40;1.20;;;24.80;49.20;;;;;;4993086;28;20614;-64
2023/06/04 16:06:42;;;;;;;1.50;1.40;;;24.70;49.10;;;;;;4993601;28;20477;-63
2023/06/04 16:09:08;;;;;;;2.10;1.97;;;24.70;49.30;;;;;;4994102;28;20821;-63
2023/06/04 16:11:36;;;;;;;1.60;1.50;;;24.70;49.70;;;;;;4997274;28;20180;-64
2023/06/04 16:14:03;;;;;;;1.80;1.37;;;24.70;49.80;;;;;;4996560;28;20277;-64
2023/06/04 16:16:30;;;;;;;1.50;1.33;;;24.70;49.90;;;;;;4996883;28;20474;-62
2023/06/04 16:18:56;;;;;;;1.83;1.27;;;24.70;49.60;;;;;;4997081;28;20776;-63
2023/06/04 16:21:22;;;;;;;1.77;1.67;;;24.70;49.90;;;;;;4996840;28;20409;-62
2023/06/04 16:23:47;;;;;;;1.23;1.17;;;24.60;50.00;;;;;;4996455;28;20750;-63
2023/06/04 16:26:13;;;;;;;1.43;1.33;;;24.60;50.20;;;;;;4996961;28;20203;-62
2023/06/04 16:28:40;;;;;;;1.33;1.33;;;24.60;50.20;;;;;;4996584;28;20191;-64
2023/06/04 16:31:06;;;;;;;1.60;1.50;;;24.60;50.20;;;;;;4996705;28;20920;-61
2023/06/04 16:33:31;;;;;;;1.30;1.20;;;24.70;50.50;;;;;;4996549;28;20407;-61
2023/06/04 16:35:57;;;;;;;1.33;1.33;;;24.70;50.50;;;;;;4996721;28;20282;-64
2023/06/04 16:38:22;;;;;;;1.40;1.27;;;24.70;50.60;;;;;;4996488;28;20183;-63
2023/06/04 16:40:48;;;;;;;1.90;1.80;;;24.70;50.30;;;;;;4996768;28;20234;-63
2023/06/04 16:43:15;;;;;;;1.40;1.30;;;24.70;50.10;;;;;;4996041;28;20187;-64
2023/06/04 16:45:41;;;;;;;1.67;1.37;;;24.60;50.10;;;;;;4996224;28;20257;-63
2023/06/04 16:48:06;;;;;;;2.27;1.17;;;24.60;50.30;;;;;;4996747;28;20446;-63
2023/06/04 16:50:32;;;;;;;1.43;1.33;;;24.60;50.20;;;;;;4996610;28;20450;-63
2023/06/04 16:52:59;;;;;;;1.10;1.10;;;24.50;50.30;;;;;;4996428;28;20634;-63